createdAt,value
2023-05-08T00:01:34.201Z,10.60
2023-05-08T00:04:03.949Z,11.35
2023-05-08T00:06:33.897Z,10.07
2023-05-08T00:09:03.326Z,11.95
2023-05-08T00:11:35.107Z,10.43
2023-05-08T00:14:04.420Z,11.55
2023-05-08T00:16:32.367Z,11.18
2023-05-08T00:18:59.470Z,10.82
2023-05-08T00:21:27.092Z,10.65
2023-05-08T00:23:56.416Z,11.85
2023-05-08T00:26:25.966Z,10.63
2023-05-08T00:28:53.050Z,12.52
2023-05-08T00:31:22.909Z,12.63
2023-05-08T00:33:49.956Z,12.32
2023-05-08T00:36:17.379Z,11.95
2023-05-08T00:38:44.403Z,13.13
2023-05-08T00:41:11.757Z,13.50
2023-05-08T00:43:38.743Z,13.50
2023-05-08T00:46:06.255Z,11.95
2023-05-08T00:48:36.205Z,12.05
2023-05-08T00:51:08.567Z,13.23
2023-05-08T00:53:41.839Z,12.35
2023-05-08T00:56:18.708Z,13.13
2023-05-08T00:58:45.863Z,13.07
2023-05-08T01:01:13.358Z,12.40
2023-05-08T01:03:40.867Z,13.77
2023-05-08T01:06:11.029Z,14.75
2023-05-08T01:08:40.550Z,13.10
2023-05-08T01:11:22.834Z,14.10
2023-05-08T01:14:04.870Z,12.63
2023-05-08T01:16:51.014Z,12.85
2023-05-08T01:19:53.149Z,12.18
2023-05-08T01:22:49.495Z,13.73
2023-05-08T01:25:22.380Z,12.02
2023-05-08T01:27:58.531Z,11.57
2023-05-08T01:30:44.231Z,11.65
2023-05-08T01:33:35.066Z,9.98
2023-05-08T01:36:33.979Z,11.50
2023-05-08T01:39:10.033Z,10.75
2023-05-08T01:41:41.204Z,10.27
2023-05-08T01:44:19.712Z,11.02
2023-05-08T01:46:50.938Z,10.30
2023-05-08T01:49:26.664Z,10.20
2023-05-08T01:52:05.752Z,10.48
2023-05-08T01:54:55.808Z,9.38
2023-05-08T01:57:28.510Z,10.18
2023-05-08T01:59:59.991Z,10.20
2023-05-08T02:02:30.404Z,10.77
2023-05-08T02:04:58.942Z,11.07
2023-05-08T02:07:26.546Z,11.77
2023-05-08T02:09:55.885Z,10.82
2023-05-08T02:12:24.611Z,10.73
2023-05-08T02:14:53.858Z,11.43
2023-05-08T02:17:24.710Z,10.52
2023-05-08T02:19:56.638Z,9.82
2023-05-08T02:22:27.490Z,10.15
2023-05-08T02:24:56.415Z,9.32
2023-05-08T02:27:29.085Z,9.55
2023-05-08T02:29:57.240Z,10.67
2023-05-08T02:32:28.415Z,9.65
2023-05-08T02:35:03.127Z,10.60
2023-05-08T02:37:34.054Z,10.57
2023-05-08T02:40:04.361Z,11.45
2023-05-08T02:42:31.489Z,11.05
2023-05-08T02:45:01.434Z,9.98
2023-05-08T02:47:53.085Z,10.25
2023-05-08T02:50:43.611Z,10.00
2023-05-08T02:53:16.164Z,10.20
2023-05-08T02:55:49.400Z,11.10
2023-05-08T02:58:40.531Z,11.43
2023-05-08T03:03:53.219Z,12.52
2023-05-08T03:06:24.286Z,11.18
2023-05-08T03:08:53.997Z,10.77
2023-05-08T03:11:32.273Z,9.63
2023-05-08T03:14:01.901Z,10.10
2023-05-08T03:16:36.531Z,9.10
2023-05-08T03:19:10.435Z,8.50
2023-05-08T03:21:40.982Z,8.60
2023-05-08T03:24:09.649Z,9.60
2023-05-08T03:26:37.415Z,8.18
2023-05-08T03:29:06.095Z,8.32
2023-05-08T03:31:34.914Z,8.52
2023-05-08T03:34:02.993Z,7.95
2023-05-08T03:36:30.972Z,7.80
2023-05-08T03:38:59.568Z,8.35
2023-05-08T03:41:26.996Z,8.13
2023-05-08T03:43:56.036Z,9.25
2023-05-08T03:46:24.094Z,9.50
2023-05-08T03:48:53.167Z,8.50
2023-05-08T03:51:21.826Z,7.65
2023-05-08T03:53:49.164Z,7.45
2023-05-08T03:56:19.189Z,7.22
2023-05-08T03:59:09.302Z,7.10
2023-05-08T04:01:44.329Z,7.05
2023-05-08T04:04:40.867Z,8.13
2023-05-08T04:07:14.036Z,8.75
2023-05-08T04:09:55.325Z,9.10
2023-05-08T04:12:33.175Z,8.52
2023-05-08T04:15:28.909Z,7.97
2023-05-08T04:18:02.794Z,7.78
2023-05-08T04:20:33.583Z,7.38
2023-05-08T04:23:02.159Z,7.35
2023-05-08T04:25:36.061Z,6.20
2023-05-08T04:28:04.761Z,7.07
2023-05-08T04:30:32.014Z,6.10
2023-05-08T04:33:00.361Z,6.82
2023-05-08T04:35:29.970Z,7.00
2023-05-08T04:38:02.826Z,6.72
2023-05-08T04:40:29.954Z,6.72
2023-05-08T04:42:57.372Z,6.22
2023-05-08T04:45:24.811Z,7.10
2023-05-08T04:47:52.166Z,6.65
2023-05-08T04:50:19.265Z,7.28
2023-05-08T04:52:46.625Z,6.20
2023-05-08T04:55:13.887Z,5.38
2023-05-08T04:57:41.404Z,6.07
2023-05-08T05:00:08.965Z,5.80
2023-05-08T05:02:38.617Z,5.53
2023-05-08T05:05:06.301Z,6.72
2023-05-08T05:07:33.754Z,5.43
2023-05-08T05:10:01.132Z,5.05
2023-05-08T05:12:28.466Z,5.20
2023-05-08T05:14:55.523Z,4.65
2023-05-08T05:17:22.931Z,4.78
2023-05-08T05:19:55.383Z,5.05
2023-05-08T05:22:23.688Z,5.10
2023-05-08T05:24:53.464Z,5.15
2023-05-08T05:27:21.449Z,5.25
2023-05-08T05:29:51.124Z,4.80
2023-05-08T05:32:20.763Z,6.65
2023-05-08T05:34:51.104Z,5.18
2023-05-08T05:37:18.490Z,5.15
2023-05-08T05:39:45.567Z,5.68
2023-05-08T05:42:15.410Z,4.43
2023-05-08T05:44:42.468Z,4.80
2023-05-08T05:47:09.977Z,4.22
2023-05-08T05:49:37.281Z,4.63
2023-05-08T05:52:04.767Z,3.80
2023-05-08T05:54:31.760Z,4.60
2023-05-08T05:56:59.086Z,3.97
2023-05-08T05:59:26.083Z,5.15
2023-05-08T06:01:53.501Z,5.20
2023-05-08T06:04:20.636Z,5.05
2023-05-08T06:06:48.026Z,4.60
2023-05-08T06:09:15.073Z,5.07
2023-05-08T06:11:42.479Z,4.93
2023-05-08T06:14:11.999Z,4.88
2023-05-08T06:16:39.587Z,4.70
2023-05-08T06:19:09.131Z,5.25
2023-05-08T06:21:36.556Z,4.95
2023-05-08T06:24:03.780Z,4.90
2023-05-08T06:26:33.323Z,5.65
2023-05-08T06:29:02.606Z,5.40
2023-05-08T06:31:30.007Z,5.57
2023-05-08T06:33:57.224Z,5.80
2023-05-08T06:36:24.573Z,5.13
2023-05-08T06:38:51.647Z,5.32
2023-05-08T06:41:21.179Z,5.93
2023-05-08T06:43:48.186Z,5.13
2023-05-08T06:46:15.666Z,4.63
2023-05-08T06:48:45.047Z,4.78
2023-05-08T06:51:12.364Z,4.47
2023-05-08T06:53:39.378Z,5.05
2023-05-08T06:56:07.216Z,4.57
2023-05-08T06:58:36.426Z,3.85
2023-05-08T07:01:03.772Z,4.55
2023-05-08T07:03:30.852Z,3.80
2023-05-08T07:06:00.621Z,3.65
2023-05-08T07:08:29.864Z,3.15
2023-05-08T07:10:59.687Z,3.45
2023-05-08T07:13:26.808Z,3.78
2023-05-08T07:15:54.488Z,3.50
2023-05-08T07:18:21.619Z,4.13
2023-05-08T07:20:48.992Z,3.33
2023-05-08T07:23:16.017Z,3.83
2023-05-08T07:25:43.342Z,3.58
2023-05-08T07:28:10.408Z,3.60
2023-05-08T07:30:37.805Z,4.05
2023-05-08T07:33:07.313Z,3.30
2023-05-08T07:35:34.775Z,3.50
2023-05-08T07:38:04.292Z,3.35
2023-05-08T07:40:31.653Z,3.58
2023-05-08T07:43:01.036Z,3.20
2023-05-08T07:45:28.549Z,3.50
2023-05-08T07:47:57.636Z,3.80
2023-05-08T07:50:26.446Z,4.65
2023-05-08T07:52:53.649Z,3.08
2023-05-08T07:55:21.047Z,3.15
2023-05-08T07:57:48.118Z,3.35
2023-05-08T08:00:16.506Z,3.47
2023-05-08T08:02:44.788Z,3.33
2023-05-08T08:05:12.940Z,3.38
2023-05-08T08:07:40.253Z,3.25
2023-05-08T08:10:08.223Z,3.00
2023-05-08T08:12:35.380Z,3.63
2023-05-08T08:15:02.848Z,3.63
2023-05-08T08:17:29.953Z,3.63
2023-05-08T08:19:57.547Z,3.22
2023-05-08T08:22:25.995Z,3.30
2023-05-08T08:24:55.672Z,3.53
2023-05-08T08:27:23.400Z,3.00
2023-05-08T08:30:04.495Z,3.40
2023-05-08T08:32:38.106Z,3.33
2023-05-08T08:35:05.955Z,3.72
2023-05-08T08:37:35.584Z,3.70
2023-05-08T08:40:06.088Z,4.03
2023-05-08T08:42:33.506Z,3.65
2023-05-08T08:45:03.331Z,4.30
2023-05-08T08:47:36.370Z,3.38
2023-05-08T08:50:07.956Z,3.38
2023-05-08T08:53:00.621Z,3.55
2023-05-08T08:55:31.087Z,3.33
2023-05-08T08:58:16.062Z,4.03
2023-05-08T09:00:46.891Z,4.40
2023-05-08T09:03:16.417Z,4.30
2023-05-08T09:05:44.325Z,4.22
2023-05-08T09:08:12.276Z,4.05
2023-05-08T09:10:40.072Z,4.00
2023-05-08T09:13:07.317Z,4.72
2023-05-08T09:15:34.938Z,4.00
2023-05-08T09:18:02.834Z,4.13
2023-05-08T09:20:30.663Z,4.05
2023-05-08T09:23:00.748Z,4.72
2023-05-08T09:25:41.782Z,4.20
2023-05-08T09:28:16.161Z,5.00
2023-05-08T09:30:53.661Z,5.03
2023-05-08T09:33:22.508Z,5.20
2023-05-08T09:35:50.746Z,4.47
2023-05-08T09:38:33.862Z,5.57
2023-05-08T09:41:12.274Z,4.68
2023-05-08T09:43:47.794Z,4.50
2023-05-08T09:46:26.641Z,5.05
2023-05-08T09:48:58.584Z,5.00
2023-05-08T09:51:30.232Z,5.10
2023-05-08T09:54:00.356Z,5.40
2023-05-08T09:56:34.613Z,5.40
2023-05-08T09:59:03.675Z,6.07
2023-05-08T10:01:36.994Z,6.03
2023-05-08T10:04:06.701Z,6.25
2023-05-08T10:06:34.224Z,5.72
2023-05-08T10:09:08.918Z,5.90
2023-05-08T10:11:36.723Z,5.57
2023-05-08T10:14:06.013Z,6.93
2023-05-08T10:16:41.014Z,6.32
2023-05-08T10:19:15.779Z,6.60
2023-05-08T10:21:48.408Z,6.63
2023-05-08T10:24:21.818Z,7.60
2023-05-08T10:27:13.439Z,7.10
2023-05-08T10:29:46.431Z,6.47
2023-05-08T10:32:19.111Z,6.10
2023-05-08T10:34:52.174Z,6.93
2023-05-08T10:39:49.226Z,7.30
2023-05-08T10:42:16.831Z,7.45
2023-05-08T10:44:44.306Z,7.15
2023-05-08T10:47:30.594Z,6.60
2023-05-08T10:50:22.700Z,7.32
2023-05-08T10:53:13.624Z,7.45
2023-05-08T10:55:42.538Z,7.63
2023-05-08T10:58:11.708Z,7.25
2023-05-08T11:00:54.680Z,7.88
2023-05-08T11:03:32.048Z,9.85
2023-05-08T11:06:01.824Z,7.55
2023-05-08T11:08:31.621Z,7.53
2023-05-08T11:11:00.359Z,8.55
2023-05-08T11:13:47.116Z,8.25
2023-05-08T11:16:16.701Z,8.60
2023-05-08T11:19:18.974Z,8.75
2023-05-08T11:22:10.651Z,7.88
2023-05-08T11:24:39.563Z,7.80
2023-05-08T11:27:09.227Z,7.25
2023-05-08T11:29:36.650Z,8.38
2023-05-08T11:32:04.047Z,7.72
2023-05-08T11:34:43.846Z,7.75
2023-05-08T11:37:16.574Z,7.97
2023-05-08T11:39:43.993Z,7.75
2023-05-08T11:42:26.413Z,7.82
2023-05-08T11:45:08.992Z,9.30
2023-05-08T11:47:40.352Z,8.05
2023-05-08T11:50:14.481Z,7.32
2023-05-08T11:52:42.780Z,7.70
2023-05-08T11:55:11.724Z,6.80
2023-05-08T11:57:39.291Z,8.27
2023-05-08T12:00:10.619Z,7.60
2023-05-08T12:02:43.357Z,7.72
2023-05-08T12:05:11.853Z,9.02
2023-05-08T12:07:48.403Z,8.32
2023-05-08T12:10:16.989Z,7.70
2023-05-08T12:12:45.350Z,7.10
2023-05-08T12:15:17.543Z,6.68
2023-05-08T12:17:44.630Z,7.57
2023-05-08T12:20:17.524Z,8.13
2023-05-08T12:22:53.922Z,7.65
2023-05-08T12:25:21.440Z,8.10
2023-05-08T12:27:51.430Z,7.70
2023-05-08T12:30:19.130Z,7.60
2023-05-08T12:32:47.082Z,7.70
2023-05-08T12:35:15.196Z,7.00
2023-05-08T12:37:42.326Z,8.30
2023-05-08T12:40:30.183Z,8.35
2023-05-08T12:42:57.912Z,6.93
2023-05-08T12:45:30.368Z,7.18
2023-05-08T12:48:02.992Z,7.50
2023-05-08T12:50:35.110Z,7.90
2023-05-08T12:53:07.009Z,8.07
2023-05-08T12:55:36.562Z,8.65
2023-05-08T12:58:04.945Z,8.70
2023-05-08T13:00:43.419Z,8.02
2023-05-08T13:03:14.549Z,7.50
2023-05-08T13:05:43.782Z,8.02
2023-05-08T13:08:10.929Z,7.53
2023-05-08T13:10:50.208Z,8.35
2023-05-08T13:13:23.680Z,7.88
2023-05-08T13:15:52.281Z,9.18
2023-05-08T13:18:27.471Z,8.70
2023-05-08T13:21:00.354Z,8.38
2023-05-08T13:23:27.581Z,7.82
2023-05-08T13:25:56.142Z,7.97
2023-05-08T13:28:23.257Z,7.82
2023-05-08T13:30:52.826Z,8.82
2023-05-08T13:33:19.816Z,7.60
2023-05-08T13:35:47.358Z,7.78
2023-05-08T13:38:14.401Z,7.20
2023-05-08T13:40:41.798Z,6.85
2023-05-08T13:43:08.928Z,7.00
2023-05-08T13:45:36.260Z,7.38
2023-05-08T13:48:03.373Z,6.43
2023-05-08T13:50:33.231Z,6.90
2023-05-08T13:53:00.220Z,6.00
2023-05-08T13:55:27.636Z,6.53
2023-05-08T13:57:54.691Z,7.40
2023-05-08T14:00:26.011Z,6.25
2023-05-08T14:02:55.176Z,5.75
2023-05-08T14:05:24.940Z,6.28
2023-05-08T14:07:51.985Z,5.97
2023-05-08T14:10:21.994Z,6.53
2023-05-08T14:12:49.051Z,6.30
2023-05-08T14:15:18.662Z,6.50
2023-05-08T14:17:48.030Z,7.00
2023-05-08T14:20:17.683Z,6.50
2023-05-08T14:22:47.365Z,6.20
2023-05-08T14:25:15.018Z,6.10
2023-05-08T14:27:42.293Z,6.30
2023-05-08T14:30:13.056Z,5.70
2023-05-08T14:32:40.235Z,6.30
2023-05-08T14:35:07.844Z,6.20
2023-05-08T14:37:34.972Z,5.78
2023-05-08T14:40:02.354Z,6.50
2023-05-08T14:42:29.400Z,6.63
2023-05-08T14:44:56.911Z,5.90
2023-05-08T14:47:24.045Z,5.97
2023-05-08T14:49:51.596Z,6.32
2023-05-08T14:52:18.690Z,6.13
2023-05-08T14:54:46.208Z,6.60
2023-05-08T14:57:13.436Z,5.88
2023-05-08T14:59:46.113Z,5.63
2023-05-08T15:02:24.283Z,5.88
2023-05-08T15:04:54.308Z,6.20
2023-05-08T15:07:21.395Z,5.40
2023-05-08T15:09:48.765Z,6.32
2023-05-08T15:12:18.511Z,6.03
2023-05-08T15:14:46.002Z,5.50
2023-05-08T15:17:17.608Z,5.55
2023-05-08T15:19:45.069Z,5.32
2023-05-08T15:22:14.800Z,5.10
2023-05-08T15:24:42.275Z,5.95
2023-05-08T15:27:14.172Z,5.35
2023-05-08T15:29:41.622Z,6.15
2023-05-08T15:32:08.705Z,5.38
2023-05-08T15:34:36.658Z,4.43
2023-05-08T15:37:07.412Z,5.65
2023-05-08T15:39:36.274Z,5.03
2023-05-08T15:42:03.344Z,4.35
2023-05-08T15:44:47.892Z,4.90
2023-05-08T15:47:18.419Z,4.88
2023-05-08T15:49:48.032Z,4.55
2023-05-08T15:52:15.138Z,4.68
2023-05-08T15:54:45.057Z,4.57
2023-05-08T15:57:12.429Z,4.50
2023-05-08T15:59:40.164Z,4.32
2023-05-08T16:02:10.280Z,3.90
2023-05-08T16:04:37.918Z,4.45
2023-05-08T16:07:07.354Z,4.57
2023-05-08T16:09:34.710Z,3.97
2023-05-08T16:12:01.723Z,4.70
2023-05-08T16:14:29.102Z,4.10
2023-05-08T16:16:56.186Z,4.03
2023-05-08T16:19:24.002Z,3.95
2023-05-08T16:21:53.572Z,4.35
2023-05-08T16:24:21.036Z,3.90
2023-05-08T16:26:50.309Z,3.92
2023-05-08T16:29:17.836Z,4.63
2023-05-08T16:31:47.603Z,4.10
2023-05-08T16:34:17.279Z,4.40
2023-05-08T16:36:46.925Z,3.90
2023-05-08T16:39:14.336Z,4.28
2023-05-08T16:41:41.507Z,4.45
2023-05-08T16:44:10.056Z,4.68
2023-05-08T16:46:37.270Z,4.22
2023-05-08T16:49:04.676Z,4.07
2023-05-08T16:51:31.794Z,3.95
2023-05-08T16:53:59.562Z,4.13
2023-05-08T16:56:26.875Z,4.10
2023-05-08T16:58:56.778Z,3.97
2023-05-08T17:01:23.895Z,3.75
2023-05-08T17:03:53.695Z,4.40
2023-05-08T17:06:20.840Z,4.15
2023-05-08T17:08:48.215Z,4.53
2023-05-08T17:11:15.501Z,3.80
2023-05-08T17:13:42.878Z,3.50
2023-05-08T17:16:09.977Z,3.55
2023-05-08T17:18:37.407Z,3.88
2023-05-08T17:21:04.767Z,3.92
2023-05-08T17:23:32.121Z,3.70
2023-05-08T17:26:00.033Z,3.60
2023-05-08T17:28:27.645Z,3.42
2023-05-08T17:30:54.829Z,3.97
2023-05-08T17:33:22.467Z,3.47
2023-05-08T17:35:49.562Z,3.58
2023-05-08T17:38:16.888Z,3.60
2023-05-08T17:40:44.051Z,3.88
2023-05-08T17:43:13.626Z,3.50
2023-05-08T17:45:42.946Z,3.85
2023-05-08T17:48:10.363Z,3.97
2023-05-08T17:50:39.737Z,3.60
2023-05-08T17:53:07.375Z,3.75
2023-05-08T17:55:35.630Z,3.95
2023-05-08T17:58:03.074Z,3.80
2023-05-08T18:00:30.252Z,3.65
2023-05-08T18:03:02.435Z,3.67
2023-05-08T18:05:29.515Z,3.55
2023-05-08T18:07:57.233Z,3.90
2023-05-08T18:10:24.419Z,3.78
2023-05-08T18:12:51.833Z,4.03
2023-05-08T18:15:18.924Z,4.05
2023-05-08T18:17:46.335Z,3.97
2023-05-08T18:20:13.775Z,5.20
2023-05-08T18:22:42.873Z,3.90
2023-05-08T18:25:10.029Z,4.43
2023-05-08T18:27:37.367Z,4.53
2023-05-08T18:30:05.014Z,4.47
2023-05-08T18:32:34.954Z,4.60
2023-05-08T18:35:02.024Z,5.30
2023-05-08T18:37:29.388Z,4.70
2023-05-08T18:39:58.924Z,4.75
2023-05-08T18:42:26.280Z,5.00
2023-05-08T18:44:55.085Z,4.60
2023-05-08T18:47:25.023Z,6.60
2023-05-08T18:49:54.314Z,4.70
2023-05-08T18:52:21.671Z,4.55
2023-05-08T18:54:48.725Z,5.50
2023-05-08T18:57:18.536Z,4.65
2023-05-08T18:59:45.644Z,4.97
2023-05-08T19:02:13.065Z,5.22
2023-05-08T19:04:40.559Z,4.90
2023-05-08T19:07:07.914Z,4.90
2023-05-08T19:09:35.173Z,4.88
2023-05-08T19:12:07.071Z,4.72
2023-05-08T19:14:34.163Z,4.53
2023-05-08T19:17:01.528Z,5.18
2023-05-08T19:19:33.257Z,5.30
2023-05-08T19:22:00.603Z,4.63
2023-05-08T19:24:27.650Z,4.97
2023-05-08T19:26:55.256Z,4.30
2023-05-08T19:29:25.048Z,4.70
2023-05-08T19:31:55.031Z,4.30
2023-05-08T19:34:22.415Z,4.38
2023-05-08T19:36:50.283Z,4.22
2023-05-08T19:39:17.355Z,4.80
2023-05-08T19:41:44.726Z,4.30
2023-05-08T19:44:11.782Z,5.50
2023-05-08T19:46:39.201Z,4.47
2023-05-08T19:49:06.381Z,4.10
2023-05-08T19:51:36.082Z,4.50
2023-05-08T19:54:05.620Z,4.88
2023-05-08T19:56:32.974Z,4.30
2023-05-08T19:59:00.127Z,4.03
2023-05-08T20:01:30.007Z,4.53
2023-05-08T20:03:59.708Z,4.30
2023-05-08T20:06:28.063Z,4.45
2023-05-08T20:08:57.588Z,3.70
2023-05-08T20:11:25.093Z,3.35
2023-05-08T20:13:52.361Z,3.85
2023-05-08T20:16:19.758Z,3.35
2023-05-08T20:18:49.312Z,3.88
2023-05-08T20:21:16.711Z,3.47
2023-05-08T20:23:43.841Z,3.58
2023-05-08T20:26:13.603Z,3.72
2023-05-08T20:28:40.800Z,3.90
2023-05-08T20:31:10.473Z,4.00
2023-05-08T20:33:37.627Z,4.40
2023-05-08T20:36:07.253Z,3.85
2023-05-08T20:38:34.307Z,3.83
2023-05-08T20:41:01.651Z,4.28
2023-05-08T20:43:31.209Z,4.15
2023-05-08T20:46:01.103Z,5.30
2023-05-08T20:48:28.202Z,4.30
2023-05-08T20:50:57.910Z,4.00
2023-05-08T20:53:27.410Z,4.10
2023-05-08T20:56:13.565Z,4.00
2023-05-08T20:58:44.109Z,4.07
2023-05-08T21:01:11.741Z,4.22
2023-05-08T21:03:38.889Z,4.47
2023-05-08T21:06:06.499Z,6.65
2023-05-08T21:08:33.637Z,4.03
2023-05-08T21:11:03.460Z,4.70
2023-05-08T21:13:30.517Z,4.00
2023-05-08T21:15:57.933Z,4.38
2023-05-08T21:18:25.048Z,4.15
2023-05-08T21:20:52.359Z,4.25
2023-05-08T21:23:24.880Z,4.72
2023-05-08T21:25:52.225Z,4.23
2023-05-08T21:28:19.250Z,4.35
2023-05-08T21:30:46.903Z,4.93
2023-05-08T21:33:14.278Z,4.43
2023-05-08T21:35:45.261Z,5.07
2023-05-08T21:38:12.380Z,5.53
2023-05-08T21:40:39.836Z,4.50
2023-05-08T21:43:06.970Z,4.78
2023-05-08T21:45:36.773Z,4.80
2023-05-08T21:48:06.345Z,4.53
2023-05-08T21:50:33.692Z,4.30
2023-05-08T21:53:00.823Z,4.43
2023-05-08T21:55:29.839Z,4.53
2023-05-08T21:57:58.299Z,4.95
2023-05-08T22:00:28.449Z,5.07
2023-05-08T22:02:58.095Z,4.72
2023-05-08T22:05:28.008Z,5.47
2023-05-08T22:07:55.065Z,5.25
2023-05-08T22:10:27.152Z,5.90
2023-05-08T22:12:59.100Z,5.57
2023-05-08T22:15:30.688Z,5.45
2023-05-08T22:17:59.177Z,5.30
2023-05-08T22:20:26.742Z,5.80
2023-05-08T22:22:56.058Z,5.22
2023-05-08T22:25:23.439Z,4.88
2023-05-08T22:27:50.546Z,5.75
2023-05-08T22:30:18.108Z,4.68
2023-05-08T22:32:52.095Z,4.90
2023-05-08T22:35:23.304Z,4.65
2023-05-08T22:37:51.783Z,4.15
2023-05-08T22:40:19.541Z,4.53
2023-05-08T22:42:47.073Z,4.90
2023-05-08T22:45:14.997Z,5.20
2023-05-08T22:47:42.570Z,5.22
2023-05-08T22:50:10.026Z,5.78
2023-05-08T22:52:37.700Z,5.10
2023-05-08T22:55:06.170Z,5.80
2023-05-08T22:57:35.735Z,5.45
2023-05-08T23:00:05.991Z,5.55
2023-05-08T23:02:34.702Z,5.68
2023-05-08T23:05:02.430Z,5.20
2023-05-08T23:07:29.792Z,4.85
2023-05-08T23:09:59.695Z,4.57
2023-05-08T23:12:26.721Z,4.15
2023-05-08T23:14:56.660Z,4.70
2023-05-08T23:17:23.767Z,4.38
2023-05-08T23:19:51.155Z,4.70
2023-05-08T23:22:18.170Z,4.85
2023-05-08T23:24:45.513Z,5.10
2023-05-08T23:27:12.549Z,4.43
2023-05-08T23:29:40.070Z,5.10
2023-05-08T23:32:07.187Z,4.50
2023-05-08T23:34:36.767Z,5.50
2023-05-08T23:37:03.832Z,4.63
2023-05-08T23:39:33.034Z,4.28
2023-05-08T23:42:02.629Z,4.95
2023-05-08T23:44:29.954Z,4.88
2023-05-08T23:46:57.055Z,5.03
2023-05-08T23:49:24.400Z,5.00
2023-05-08T23:51:51.521Z,4.75
2023-05-08T23:54:18.894Z,5.03
2023-05-08T23:56:48.513Z,4.32
2023-05-08T23:59:15.837Z,5.28
